Hilda, SC

4:35 PM EDT on April 26, 2015 (GMT -0400)
Clemson Edisto REC | | Change Station
CLOSE
Current Station
Personal Weather Station
Location: Blackville, SC
Elevation: 322 ft
Nearby Weather Stations

Elev 322 ft 33.36 °N, 81.33 °W | Updated 44 seconds ago

Clear
Clear
82.9 °F
Feels Like 83 °F
N
13.9
Wind Variable Wind from NW
Gusts 17.0 mph

Today
High -- | Low -- °F
--% Chance of Precip.
Yesterday
High -- | Low -- °F
Precip. -- in
6:42 AM 8:04 PM
First Quarter, 58% visible
Pressure 29.57 in
Visibility 10.0 miles
Clouds Scattered Clouds 7000 ft
Scattered Clouds 9000 ft
Heat Index 83 °F
Dew Point 59 °F
Humidity 44%
Rainfall 0.00 in
Snow Depth Not available.
UV 2.3 out of 12
Pollen 10.20 out of 12
Air Quality Not available.
Flu Activity Local Activity
METAR KOGB 261953Z AUTO 27012G19KT 10SM SCT070 SCT090 29/14 A2958 RMK AO2 SLP013 T02940139

More Conditions Fewer Conditions

Pressure 29.57 in
Visibility 10.0 miles
Clouds Scattered Clouds 7000 ft
Scattered Clouds 9000 ft
Heat Index 83 °F
Dew Point 59 °F
Humidity 44%
Rainfall 0.00 in
Snow Depth Not available.
UV 2.3 out of 12
Pollen 10.20 out of 12
Air Quality Not available.
Flu Activity Local Activity
METAR KOGB 261953Z AUTO 27012G19KT 10SM SCT070 SCT090 29/14 A2958 RMK AO2 SLP013 T02940139

More Conditions Fewer Conditions

The full scope of the disaster following a powerful 7.8-magnitude earthquake in Nepal may not come into view for days, but global charities are already sending emergency aid. Click to see how you can help.

10-Day Weather Forecast

Almanac

Astronomy

Apr. 26, 2015 Rise Set
Actual Time
Civil Twilight
Nautical Twilight
Astronomical Twilight
Moon
Length of Visible Light
Length of Day
Tomorrow will be .
, % of the Moon is Illuminated

Today's Extremes

State Highs State Lows

Community

WunderPhotos

Upload Photos

1,817,113 photos uploaded!

WunderBlogs® & News

Nearby

Air Quality

  Air Quality AQ Index Pollutant
Not available.

Snow Depth

Station Depth Elevation

Earthquake Activity

City Distance Mag. Time & Date
Minimum magnitude displayed is 2.5.

Coastal Water Temperatures

Place Temperature

Stations

Nearby Weather Stations

Station Location Temp. Windchill Dew Point Humidity Wind Precip. Elev Updated Type